Time;durP1;ratioP1;P1;durP2;ratioP2;P2;SDS_P1;SDS_P2;PMS_P1;PMS_P2;Temp;Humidity;BMP_temperature;BMP_pressure;BME280_temperature;BME280_humidity;BME280_pressure;Samples;Min_cycle;Max_cycle;Signal;HPM_P1;HPM_P2
2023/03/28 00:00:39;;;;;;;4.30;3.35;;;0.10;99.90;;;;;;485507;245;27971;-74
2023/03/28 00:02:40;;;;;;;5.20;3.33;;;0.00;99.90;;;;;;485526;245;27892;-74
2023/03/28 00:04:41;;;;;;;5.35;3.70;;;0.00;99.90;;;;;;485149;245;28077;-74
2023/03/28 00:06:44;;;;;;;6.65;4.05;;;0.00;99.90;;;;;;485533;245;27590;-74
2023/03/28 00:08:44;;;;;;;3.30;3.00;;;0.00;99.90;;;;;;485447;245;27471;-74
2023/03/28 00:10:45;;;;;;;6.95;3.60;;;-0.10;99.90;;;;;;485508;242;27586;-74
2023/03/28 00:12:46;;;;;;;5.80;3.47;;;-0.10;99.90;;;;;;485502;245;27559;-74
2023/03/28 00:14:47;;;;;;;6.40;4.37;;;-0.10;99.90;;;;;;485405;245;27609;-74
2023/03/28 00:16:49;;;;;;;5.87;4.80;;;-0.10;99.90;;;;;;485514;245;27527;-74
2023/03/28 00:18:50;;;;;;;6.20;3.83;;;-0.20;99.90;;;;;;485523;245;27494;-74
2023/03/28 00:20:52;;;;;;;5.25;3.15;;;-0.30;99.90;;;;;;485505;245;27499;-74
2023/03/28 00:22:53;;;;;;;3.85;3.45;;;-0.40;99.90;;;;;;485501;245;27458;-74
2023/03/28 00:24:55;;;;;;;3.85;3.12;;;-0.40;99.90;;;;;;485403;245;28012;-74
2023/03/28 00:26:59;;;;;;;3.22;2.70;;;-0.40;99.90;;;;;;485469;245;27990;-74
2023/03/28 00:28:56;;;;;;;6.18;3.45;;;-0.40;99.90;;;;;;485374;245;27577;-75
2023/03/28 00:30:57;;;;;;;5.12;3.20;;;-0.30;99.90;;;;;;485565;245;27510;-76
2023/03/28 00:32:59;;;;;;;8.52;3.35;;;-0.40;99.90;;;;;;485545;245;27496;-74
2023/03/28 00:35:00;;;;;;;3.17;2.75;;;-0.30;99.90;;;;;;485483;245;27578;-74
2023/03/28 00:37:04;;;;;;;4.80;2.80;;;-0.30;99.90;;;;;;485386;245;27614;-74
2023/03/28 00:39:05;;;;;;;4.60;2.85;;;-0.30;99.90;;;;;;485522;245;28091;-75
2023/03/28 00:41:09;;;;;;;3.80;2.83;;;-0.30;99.90;;;;;;485540;245;28490;-74
2023/03/28 00:43:08;;;;;;;3.75;2.78;;;-0.30;99.90;;;;;;485415;245;27607;-74
2023/03/28 00:45:10;;;;;;;3.40;2.90;;;-0.30;99.90;;;;;;485458;245;27502;-74
2023/03/28 00:47:10;;;;;;;2.80;2.55;;;-0.30;99.90;;;;;;485541;245;27561;-74
2023/03/28 00:49:12;;;;;;;4.15;2.83;;;-0.30;99.90;;;;;;485543;245;27485;-74
2023/03/28 00:51:13;;;;;;;3.22;2.87;;;-0.30;99.90;;;;;;485553;245;27480;-74
2023/03/28 00:53:14;;;;;;;9.45;4.32;;;-0.30;99.90;;;;;;485529;245;27500;-74
2023/03/28 00:55:15;;;;;;;7.68;3.25;;;-0.30;99.90;;;;;;485477;245;27551;-74
2023/03/28 00:57:17;;;;;;;3.83;3.00;;;-0.40;99.90;;;;;;485520;245;27994;-74
2023/03/28 00:59:18;;;;;;;7.80;3.55;;;-0.40;99.90;;;;;;485539;245;28044;-74
2023/03/28 01:01:19;;;;;;;5.03;3.37;;;-0.50;99.90;;;;;;485484;245;28027;-74
2023/03/28 01:03:21;;;;;;;4.03;3.12;;;-0.60;99.90;;;;;;485508;245;27508;-74
2023/03/28 01:05:22;;;;;;;3.92;2.97;;;-0.60;99.90;;;;;;485445;245;27470;-74
2023/03/28 01:07:23;;;;;;;3.37;3.08;;;-0.70;99.90;;;;;;485515;245;27492;-74
2023/03/28 01:09:24;;;;;;;8.20;3.40;;;-0.70;99.90;;;;;;485536;245;27510;-75
2023/03/28 01:11:26;;;;;;;7.10;3.05;;;-0.60;99.90;;;;;;485543;245;27495;-74
2023/03/28 01:13:27;;;;;;;3.47;3.15;;;-0.70;99.90;;;;;;485545;241;27582;-74
2023/03/28 01:15:28;;;;;;;3.47;3.10;;;-0.70;99.90;;;;;;485435;245;27597;-74
2023/03/28 01:17:29;;;;;;;4.45;2.80;;;-0.60;99.90;;;;;;485513;245;28031;-74
2023/03/28 01:19:30;;;;;;;4.18;2.67;;;-0.60;99.90;;;;;;485545;245;28004;-74
2023/03/28 01:21:32;;;;;;;6.47;3.20;;;-0.50;99.90;;;;;;485527;245;28029;-74
2023/03/28 01:23:33;;;;;;;5.35;2.70;;;-0.50;99.90;;;;;;485503;245;27501;-74
2023/03/28 01:25:34;;;;;;;6.70;3.10;;;-0.50;99.90;;;;;;485490;245;27461;-74
2023/03/28 01:27:35;;;;;;;4.00;3.10;;;-0.50;99.90;;;;;;485514;245;27503;-74
2023/03/28 01:29:37;;;;;;;4.95;2.65;;;-0.50;99.90;;;;;;485534;245;27515;-75
2023/03/28 01:31:38;;;;;;;4.40;3.12;;;-0.60;99.90;;;;;;485545;243;27450;-75
2023/03/28 01:33:39;;;;;;;3.33;3.03;;;-0.60;99.90;;;;;;485500;245;27584;-75
2023/03/28 01:35:40;;;;;;;4.10;3.70;;;-0.60;99.90;;;;;;485285;242;27459;-74
2023/03/28 01:37:42;;;;;;;4.10;3.53;;;-0.60;99.90;;;;;;485498;245;27965;-74
2023/03/28 01:39:43;;;;;;;9.57;4.18;;;-0.60;99.90;;;;;;485511;245;27993;-74
2023/03/28 01:41:44;;;;;;;7.37;4.55;;;-0.60;99.90;;;;;;485546;245;28016;-74
2023/03/28 01:43:46;;;;;;;8.13;4.12;;;-0.60;99.90;;;;;;485556;245;27494;-75
2023/03/28 01:45:47;;;;;;;6.30;3.58;;;-0.70;99.90;;;;;;485497;245;27550;-73
2023/03/28 01:47:48;;;;;;;9.10;4.20;;;-0.70;99.90;;;;;;485534;245;27503;-74
2023/03/28 01:49:50;;;;;;;3.20;2.90;;;-0.60;99.90;;;;;;485538;245;27618;-74
2023/03/28 01:51:50;;;;;;;7.40;3.60;;;-0.60;99.90;;;;;;485535;245;27475;-74
2023/03/28 01:53:52;;;;;;;5.90;3.15;;;-0.70;99.90;;;;;;485550;245;27502;-74
2023/03/28 01:55:53;;;;;;;4.10;3.15;;;-0.70;99.90;;;;;;485508;245;27469;-74
2023/03/28 01:57:55;;;;;;;4.35;3.15;;;-0.70;99.90;;;;;;485537;241;28044;-74
2023/03/28 01:59:55;;;;;;;5.18;3.40;;;-0.70;99.90;;;;;;485509;245;28697;-74
2023/03/28 02:01:57;;;;;;;6.25;3.58;;;-0.70;99.90;;;;;;485516;245;27910;-74
2023/03/28 02:03:58;;;;;;;3.42;2.42;;;-0.80;99.90;;;;;;485519;245;27603;-74
2023/03/28 02:05:59;;;;;;;4.85;3.20;;;-0.80;99.90;;;;;;485492;245;27467;-74
2023/03/28 02:08:01;;;;;;;3.90;2.67;;;-0.80;99.90;;;;;;485524;245;27488;-74
2023/03/28 02:10:02;;;;;;;3.83;2.90;;;-0.80;99.90;;;;;;485493;245;27529;-74
2023/03/28 02:12:03;;;;;;;5.57;3.22;;;-0.80;99.90;;;;;;485531;245;27554;-74
2023/03/28 02:14:04;;;;;;;3.20;2.60;;;-0.80;99.90;;;;;;485523;245;27499;-74
2023/03/28 02:16:06;;;;;;;3.78;2.95;;;-0.90;99.90;;;;;;485158;241;27466;-74
2023/03/28 02:18:08;;;;;;;4.10;3.35;;;-0.90;99.90;;;;;;485518;245;27500;-74
2023/03/28 02:20:10;;;;;;;2.90;2.70;;;-0.90;99.90;;;;;;485506;245;27609;-74
2023/03/28 02:22:09;;;;;;;4.05;3.67;;;-0.90;99.90;;;;;;485435;245;27516;-74
2023/03/28 02:24:11;;;;;;;10.88;3.90;;;-0.90;99.90;;;;;;485518;245;27607;-74
2023/03/28 02:26:12;;;;;;;6.68;3.72;;;-1.00;99.90;;;;;;485228;245;27464;-74
2023/03/28 02:28:13;;;;;;;5.87;3.50;;;-1.00;99.90;;;;;;485535;245;27892;-74
2023/03/28 02:30:14;;;;;;;5.18;3.33;;;-1.00;99.90;;;;;;485445;245;28061;-74
2023/03/28 02:32:16;;;;;;;7.07;3.67;;;-1.00;99.90;;;;;;485510;245;27922;-74
2023/03/28 02:34:17;;;;;;;6.95;4.00;;;-1.00;99.90;;;;;;485529;245;27586;-74
2023/03/28 02:36:18;;;;;;;6.32;3.87;;;-1.00;99.90;;;;;;484882;245;27522;-74
2023/03/28 02:38:19;;;;;;;8.10;4.07;;;-1.00;99.90;;;;;;485510;245;27460;-74
2023/03/28 02:40:21;;;;;;;4.07;3.55;;;-1.10;99.90;;;;;;485507;245;27526;-74
2023/03/28 02:42:22;;;;;;;6.75;3.78;;;-1.10;99.90;;;;;;485515;245;27483;-74
2023/03/28 02:44:23;;;;;;;3.20;2.90;;;-1.10;99.90;;;;;;485446;245;27501;-74
2023/03/28 02:46:25;;;;;;;4.62;3.53;;;-1.00;99.90;;;;;;485526;245;27614;-74
2023/03/28 02:48:26;;;;;;;4.03;3.40;;;-1.00;99.90;;;;;;485519;245;27958;-77
2023/03/28 02:50:27;;;;;;;3.60;3.30;;;-1.10;99.90;;;;;;485514;242;27988;-74
2023/03/28 02:52:33;;;;;;;4.15;3.58;;;-1.10;99.90;;;;;;485522;245;28071;-74
2023/03/28 02:54:29;;;;;;;6.65;3.50;;;-1.10;99.90;;;;;;485250;245;27594;-74
2023/03/28 02:56:31;;;;;;;7.12;3.55;;;-1.10;99.90;;;;;;485509;245;27555;-74
2023/03/28 02:58:33;;;;;;;4.97;3.42;;;-1.10;99.90;;;;;;485530;245;27522;-74
2023/03/28 03:00:35;;;;;;;6.15;3.65;;;-1.10;99.90;;;;;;485528;245;27487;-74
2023/03/28 03:02:34;;;;;;;4.18;3.35;;;-1.20;99.90;;;;;;485456;245;27462;-74
2023/03/28 03:04:36;;;;;;;4.35;3.20;;;-1.20;99.90;;;;;;485469;245;27504;-74
2023/03/28 03:06:37;;;;;;;3.20;2.90;;;-1.10;99.90;;;;;;485521;245;27569;-74
2023/03/28 03:08:38;;;;;;;4.43;4.00;;;-1.20;99.90;;;;;;485535;245;27492;-74
2023/03/28 03:10:40;;;;;;;6.22;3.92;;;-1.10;99.90;;;;;;485483;245;28002;-74
2023/03/28 03:12:41;;;;;;;5.28;3.62;;;-1.20;99.90;;;;;;485530;245;27918;-73
2023/03/28 03:14:42;;;;;;;7.00;4.12;;;-1.20;99.90;;;;;;485480;245;27489;-74
2023/03/28 03:16:43;;;;;;;4.15;3.75;;;-1.20;99.90;;;;;;485460;245;27511;-74
2023/03/28 03:18:45;;;;;;;4.03;3.62;;;-1.20;99.90;;;;;;485545;245;27468;-74
2023/03/28 03:20:46;;;;;;;5.53;3.55;;;-1.20;99.90;;;;;;485274;245;27589;-74
2023/03/28 03:22:47;;;;;;;6.20;3.92;;;-1.20;99.90;;;;;;485511;245;27468;-74
2023/03/28 03:24:49;;;;;;;5.40;3.40;;;-1.30;99.90;;;;;;485447;245;27587;-74
2023/03/28 03:26:50;;;;;;;8.43;3.95;;;-1.30;99.90;;;;;;485488;245;27507;-74
2023/03/28 03:28:51;;;;;;;4.53;3.70;;;-1.40;99.90;;;;;;485531;245;27925;-74
2023/03/28 03:30:52;;;;;;;4.93;3.67;;;-1.30;99.90;;;;;;485544;245;27992;-74
2023/03/28 03:32:54;;;;;;;4.10;3.65;;;-1.30;99.90;;;;;;485526;245;29012;-74
2023/03/28 03:34:55;;;;;;;3.47;3.17;;;-1.40;99.90;;;;;;485392;245;27476;-74
2023/03/28 03:36:56;;;;;;;7.07;3.90;;;-1.50;99.90;;;;;;485543;245;27510;-74
2023/03/28 03:38:57;;;;;;;5.75;3.05;;;-1.40;99.90;;;;;;485554;245;27453;-74
2023/03/28 03:40:58;;;;;;;5.57;3.05;;;-1.40;99.90;;;;;;485503;245;27495;-74
2023/03/28 03:43:00;;;;;;;5.03;3.70;;;-1.40;99.90;;;;;;485568;245;27589;-74
2023/03/28 03:45:01;;;;;;;6.95;3.58;;;-1.40;99.90;;;;;;485476;245;27503;-74
2023/03/28 03:47:02;;;;;;;5.75;3.90;;;-1.30;99.90;;;;;;485518;245;27576;-74
2023/03/28 03:49:03;;;;;;;4.25;3.20;;;-1.40;99.90;;;;;;485510;245;27905;-74
2023/03/28 03:51:05;;;;;;;4.72;3.60;;;-1.40;99.90;;;;;;485510;245;28000;-74
2023/03/28 03:53:06;;;;;;;3.95;3.45;;;-1.40;99.90;;;;;;485531;245;29066;-74
2023/03/28 03:55:07;;;;;;;6.30;3.87;;;-1.40;99.90;;;;;;485484;245;27492;-74
2023/03/28 03:57:08;;;;;;;4.60;4.00;;;-1.40;99.90;;;;;;485485;245;27516;-74
2023/03/28 03:59:10;;;;;;;5.32;3.65;;;-1.40;99.90;;;;;;485517;245;27586;-75
2023/03/28 04:01:12;;;;;;;5.05;3.72;;;-1.40;99.90;;;;;;485463;245;27532;-75
2023/03/28 04:03:12;;;;;;;4.45;4.03;;;-1.50;99.90;;;;;;485466;245;27463;-74
2023/03/28 04:05:13;;;;;;;6.37;4.22;;;-1.50;99.90;;;;;;485438;245;27495;-74
2023/03/28 04:07:15;;;;;;;4.70;3.90;;;-1.50;99.90;;;;;;485528;245;27571;-74
2023/03/28 04:09:16;;;;;;;5.43;4.10;;;-1.50;99.90;;;;;;485535;245;27908;-73
2023/03/28 04:11:17;;;;;;;5.78;3.87;;;-1.50;99.90;;;;;;485527;241;27989;-74
2023/03/28 04:13:18;;;;;;;4.80;3.70;;;-1.50;99.90;;;;;;485501;245;29080;-74
2023/03/28 04:15:20;;;;;;;5.37;3.70;;;-1.50;99.90;;;;;;485448;242;27554;-74
2023/03/28 04:17:22;;;;;;;6.40;3.70;;;-1.40;99.90;;;;;;485531;245;27511;-74
2023/03/28 04:19:23;;;;;;;11.27;4.12;;;-1.40;99.90;;;;;;485471;245;27450;-74
2023/03/28 04:21:27;;;;;;;4.85;4.47;;;-1.50;99.90;;;;;;485496;245;27504;-74
2023/03/28 04:23:25;;;;;;;6.18;3.75;;;-1.50;99.90;;;;;;485247;245;27526;-74
2023/03/28 04:25:28;;;;;;;8.80;3.78;;;-1.50;99.90;;;;;;485459;245;27493;-74
2023/03/28 04:27:30;;;;;;;5.45;3.53;;;-1.50;99.90;;;;;;485436;245;27502;-74
2023/03/28 04:29:31;;;;;;;6.82;4.25;;;-1.50;99.90;;;;;;485514;245;27978;-74
2023/03/28 04:31:34;;;;;;;4.35;3.65;;;-1.60;99.90;;;;;;485443;245;29159;-74
2023/03/28 04:33:34;;;;;;;8.30;4.18;;;-1.60;99.90;;;;;;485455;245;27591;-74
2023/03/28 04:35:35;;;;;;;5.32;3.92;;;-1.60;99.90;;;;;;485457;245;27517;-74
2023/03/28 04:37:36;;;;;;;4.20;3.80;;;-1.60;99.90;;;;;;485403;245;27534;-74
2023/03/28 04:39:40;;;;;;;4.70;3.80;;;-1.70;99.90;;;;;;485353;245;27527;-74
2023/03/28 04:41:39;;;;;;;6.12;3.90;;;-1.70;99.90;;;;;;485421;245;27479;-74
2023/03/28 04:43:40;;;;;;;8.32;3.85;;;-1.70;99.90;;;;;;485547;241;27510;-74
2023/03/28 04:45:42;;;;;;;5.05;3.78;;;-1.90;99.90;;;;;;485440;245;27579;-74
2023/03/28 04:47:43;;;;;;;5.50;3.92;;;-1.90;99.90;;;;;;485399;245;27977;-74
2023/03/28 04:49:44;;;;;;;11.25;4.40;;;-1.90;99.90;;;;;;485360;245;29194;-74
2023/03/28 04:51:45;;;;;;;7.05;3.45;;;-1.90;99.90;;;;;;485313;245;27467;-74
2023/03/28 04:53:47;;;;;;;8.55;3.90;;;-2.00;99.90;;;;;;485293;245;27499;-74
2023/03/28 04:55:51;;;;;;;3.53;3.20;;;-2.00;99.90;;;;;;485349;245;27515;-74
2023/03/28 04:57:52;;;;;;;3.97;3.62;;;-2.00;99.90;;;;;;485586;245;27609;-74
2023/03/28 04:59:53;;;;;;;4.00;3.45;;;-2.00;99.90;;;;;;485642;245;27466;-74
2023/03/28 05:01:54;;;;;;;5.00;3.65;;;-1.90;99.90;;;;;;485657;245;27552;-74
2023/03/28 05:03:55;;;;;;;4.60;4.00;;;-2.00;99.90;;;;;;485663;245;27985;-74
2023/03/28 05:05:57;;;;;;;5.87;3.75;;;-1.90;99.90;;;;;;485554;245;28092;-74
2023/03/28 05:07:58;;;;;;;7.37;4.25;;;-1.90;99.90;;;;;;485577;245;27803;-74
2023/03/28 05:09:59;;;;;;;8.68;4.18;;;-1.90;99.90;;;;;;485592;245;27567;-74
2023/03/28 05:12:01;;;;;;;5.07;3.60;;;-2.00;99.90;;;;;;485565;245;27599;-74
2023/03/28 05:14:02;;;;;;;5.62;4.78;;;-1.90;99.90;;;;;;485527;245;27464;-74
2023/03/28 05:16:03;;;;;;;5.30;3.85;;;-1.90;99.90;;;;;;485479;245;27625;-74
2023/03/28 05:18:04;;;;;;;9.38;4.82;;;-1.90;99.90;;;;;;485405;245;27476;-75
2023/03/28 05:20:08;;;;;;;6.60;3.75;;;-1.90;99.90;;;;;;485491;245;27498;-74
2023/03/28 05:22:07;;;;;;;4.70;3.53;;;-1.90;99.90;;;;;;485390;245;27933;-75
2023/03/28 05:24:08;;;;;;;3.60;3.30;;;-1.90;99.90;;;;;;485541;245;27986;-74
2023/03/28 05:26:09;;;;;;;7.57;3.83;;;-1.80;99.90;;;;;;485502;245;29109;-74
2023/03/28 05:28:11;;;;;;;5.25;3.95;;;-1.90;99.90;;;;;;485528;245;27472;-74
2023/03/28 05:30:12;;;;;;;8.38;3.90;;;-1.90;99.90;;;;;;485543;245;27577;-74
2023/03/28 05:32:13;;;;;;;3.70;3.40;;;-1.90;99.90;;;;;;485535;245;27606;-74
2023/03/28 05:34:14;;;;;;;4.55;3.55;;;-1.90;99.90;;;;;;485515;245;27446;-74
2023/03/28 05:36:16;;;;;;;4.10;2.90;;;-1.90;99.90;;;;;;485473;245;27618;-74
2023/03/28 05:38:17;;;;;;;6.50;3.87;;;-1.90;99.90;;;;;;485532;245;27558;-73
2023/03/28 05:40:19;;;;;;;4.30;3.60;;;-1.90;99.90;;;;;;485543;245;27638;-74
2023/03/28 05:42:20;;;;;;;5.55;3.80;;;-1.80;99.90;;;;;;485527;245;28073;-74
2023/03/28 05:44:21;;;;;;;5.82;3.42;;;-1.70;99.90;;;;;;485486;245;28001;-74
2023/03/28 05:46:22;;;;;;;5.45;4.05;;;-1.70;99.90;;;;;;485535;245;29076;-74
2023/03/28 05:48:23;;;;;;;4.45;3.90;;;-1.70;99.90;;;;;;485533;245;27500;-74
2023/03/28 05:50:25;;;;;;;5.10;3.58;;;-1.70;99.90;;;;;;485547;241;27466;-74
2023/03/28 05:52:26;;;;;;;4.60;3.92;;;-1.70;99.90;;;;;;485420;245;27503;-74
2023/03/28 05:54:27;;;;;;;7.00;3.97;;;-1.70;99.90;;;;;;485496;245;27464;-74
2023/03/28 05:56:31;;;;;;;9.70;4.28;;;-1.70;99.90;;;;;;485529;245;27638;-74
2023/03/28 05:58:30;;;;;;;4.25;3.85;;;-1.70;99.90;;;;;;485340;245;27487;-74
2023/03/28 06:00:31;;;;;;;3.70;3.40;;;-1.60;99.90;;;;;;485488;245;27566;-74
2023/03/28 06:02:32;;;;;;;4.57;3.55;;;-1.60;99.90;;;;;;485504;245;28124;-74
2023/03/28 06:04:33;;;;;;;5.82;4.00;;;-1.60;99.90;;;;;;485443;245;28073;-74
2023/03/28 06:06:34;;;;;;;8.75;4.32;;;-1.50;99.90;;;;;;485526;245;27975;-74
2023/03/28 06:08:36;;;;;;;5.62;4.53;;;-1.50;99.90;;;;;;485525;245;27505;-74
2023/03/28 06:10:37;;;;;;;7.57;3.58;;;-1.50;99.90;;;;;;485542;245;27487;-74
2023/03/28 06:12:38;;;;;;;4.43;3.60;;;-1.50;99.90;;;;;;485529;245;27522;-74
2023/03/28 06:14:40;;;;;;;6.22;3.60;;;-1.40;99.90;;;;;;485480;245;27602;-74
2023/03/28 06:16:41;;;;;;;3.78;3.47;;;-1.40;99.90;;;;;;485511;245;27510;-73
2023/03/28 06:18:42;;;;;;;5.85;3.75;;;-1.40;99.90;;;;;;485533;245;27492;-74
2023/03/28 06:20:43;;;;;;;4.22;3.40;;;-1.30;99.90;;;;;;485562;245;27471;-74
2023/03/28 06:22:44;;;;;;;6.70;3.60;;;-1.30;99.90;;;;;;485563;245;27956;-74
2023/03/28 06:24:46;;;;;;;5.95;3.83;;;-1.30;99.90;;;;;;485529;245;27919;-74
2023/03/28 06:26:47;;;;;;;8.60;4.57;;;-1.30;99.90;;;;;;485548;245;27991;-74
2023/03/28 06:28:48;;;;;;;7.18;3.85;;;-1.30;99.90;;;;;;485554;245;27506;-74
2023/03/28 06:30:49;;;;;;;5.00;3.70;;;-1.20;99.90;;;;;;485532;245;27541;-74
2023/03/28 06:32:51;;;;;;;6.30;4.00;;;-1.30;99.90;;;;;;485543;245;27602;-74
2023/03/28 06:34:52;;;;;;;19.92;10.50;;;-1.20;99.90;;;;;;485465;245;27479;-74
2023/03/28 06:36:53;;;;;;;22.67;12.40;;;-1.20;99.90;;;;;;485482;245;27502;-74
2023/03/28 06:38:57;;;;;;;24.77;11.57;;;-1.10;99.90;;;;;;485495;245;27546;-74
2023/03/28 06:40:56;;;;;;;15.70;9.50;;;-1.10;99.90;;;;;;485218;245;27951;-74
2023/03/28 06:42:57;;;;;;;15.02;8.98;;;-1.10;99.90;;;;;;485371;245;27977;-74
2023/03/28 06:44:58;;;;;;;15.52;9.63;;;-1.10;99.90;;;;;;485322;245;27516;-74
2023/03/28 06:46:59;;;;;;;15.57;8.70;;;-1.10;99.90;;;;;;485437;245;27502;-74
2023/03/28 06:49:01;;;;;;;13.85;7.85;;;-1.00;99.90;;;;;;485515;245;27499;-74
2023/03/28 06:51:02;;;;;;;9.75;7.37;;;-0.90;99.90;;;;;;485511;245;27476;-74
2023/03/28 06:53:03;;;;;;;14.10;7.75;;;-0.80;99.90;;;;;;485485;245;27523;-74
2023/03/28 06:55:05;;;;;;;12.82;7.65;;;-0.70;99.90;;;;;;485383;245;27469;-74
2023/03/28 06:57:06;;;;;;;8.65;6.15;;;-0.60;99.90;;;;;;485515;245;27955;-74
2023/03/28 06:59:07;;;;;;;9.02;5.50;;;-0.50;99.90;;;;;;485542;245;27967;-74
2023/03/28 07:01:08;;;;;;;9.02;5.25;;;-0.50;99.90;;;;;;485515;245;27615;-74
2023/03/28 07:03:09;;;;;;;6.65;5.00;;;-0.40;99.90;;;;;;485501;245;27512;-74
2023/03/28 07:05:11;;;;;;;8.88;4.65;;;-0.30;99.90;;;;;;485490;245;27510;-74
2023/03/28 07:07:12;;;;;;;10.35;4.85;;;-0.30;99.90;;;;;;485518;245;27469;-74
2023/03/28 07:09:13;;;;;;;9.10;4.70;;;-0.20;99.90;;;;;;485504;245;27511;-74
2023/03/28 07:11:15;;;;;;;9.73;4.40;;;-0.20;99.90;;;;;;485494;245;27456;-74
2023/03/28 07:13:16;;;;;;;8.75;4.93;;;-0.10;99.90;;;;;;485491;245;27515;-74
2023/03/28 07:15:17;;;;;;;7.78;5.35;;;-0.10;99.90;;;;;;485429;245;28436;-75
2023/03/28 07:17:19;;;;;;;11.70;5.12;;;0.00;99.90;;;;;;485498;245;28002;-74
2023/03/28 07:19:20;;;;;;;7.12;4.90;;;0.00;99.90;;;;;;485477;245;28059;-74
2023/03/28 07:21:21;;;;;;;6.37;4.43;;;0.00;99.90;;;;;;485504;245;27508;-74
2023/03/28 07:23:22;;;;;;;7.37;4.55;;;0.00;99.90;;;;;;485477;245;27511;-74
2023/03/28 07:25:24;;;;;;;8.90;4.72;;;0.10;99.90;;;;;;485448;245;27499;-74
2023/03/28 07:27:25;;;;;;;7.80;5.03;;;0.10;99.90;;;;;;485478;245;27459;-74
2023/03/28 07:29:26;;;;;;;8.77;4.25;;;0.20;99.90;;;;;;485490;245;27489;-74
2023/03/28 07:31:27;;;;;;;7.65;4.03;;;0.20;99.90;;;;;;485526;245;27479;-74
2023/03/28 07:33:28;;;;;;;11.55;4.32;;;0.30;99.90;;;;;;485485;245;27688;-74
2023/03/28 07:35:30;;;;;;;8.98;4.62;;;0.30;99.90;;;;;;485324;245;27535;-74
2023/03/28 07:37:31;;;;;;;8.18;3.67;;;0.30;99.90;;;;;;485523;245;27995;-74
2023/03/28 07:39:33;;;;;;;6.62;3.37;;;0.40;99.90;;;;;;485533;245;27952;-74
2023/03/28 07:41:33;;;;;;;6.55;3.58;;;0.50;99.90;;;;;;485500;245;27995;-74
2023/03/28 07:43:35;;;;;;;5.15;2.80;;;0.50;99.90;;;;;;485436;245;27976;-74
2023/03/28 07:45:36;;;;;;;3.92;2.67;;;0.60;99.90;;;;;;485463;245;27508;-74
2023/03/28 07:47:37;;;;;;;3.60;2.60;;;0.60;99.90;;;;;;485518;245;27493;-74
2023/03/28 07:49:39;;;;;;;4.30;2.92;;;0.70;99.90;;;;;;485533;245;27514;-74
2023/03/28 07:51:40;;;;;;;6.45;2.80;;;0.80;99.90;;;;;;485501;245;27472;-74
2023/03/28 07:53:41;;;;;;;6.35;2.80;;;0.90;99.90;;;;;;485513;245;27575;-74
2023/03/28 07:55:44;;;;;;;4.05;2.03;;;0.90;99.90;;;;;;485471;245;27531;-74
2023/03/28 07:57:43;;;;;;;4.03;2.42;;;1.00;99.90;;;;;;485431;245;27559;-74
2023/03/28 07:59:45;;;;;;;7.22;2.45;;;1.10;99.90;;;;;;485510;245;27972;-74
2023/03/28 08:01:46;;;;;;;8.35;2.92;;;1.30;99.90;;;;;;485498;245;28059;-74
2023/03/28 08:03:47;;;;;;;4.75;2.42;;;1.30;99.90;;;;;;485516;245;27491;-74
2023/03/28 08:05:50;;;;;;;8.98;2.80;;;1.40;99.90;;;;;;485476;245;27531;-74
2023/03/28 08:07:52;;;;;;;3.72;2.50;;;1.40;99.90;;;;;;485423;243;27559;-75
2023/03/28 08:09:52;;;;;;;7.62;2.62;;;1.50;99.90;;;;;;485324;245;27494;-74
2023/03/28 08:11:52;;;;;;;4.20;3.00;;;1.50;99.90;;;;;;485415;242;27498;-74
2023/03/28 08:13:53;;;;;;;4.37;2.70;;;1.60;99.90;;;;;;485494;245;27456;-74
2023/03/28 08:15:55;;;;;;;7.43;2.80;;;1.60;99.90;;;;;;485462;245;27599;-74
2023/03/28 08:17:56;;;;;;;5.75;3.50;;;1.70;99.90;;;;;;485489;241;27456;-74
2023/03/28 08:19:57;;;;;;;4.25;2.47;;;1.70;99.90;;;;;;485505;245;27504;-74
2023/03/28 08:22:01;;;;;;;8.65;3.33;;;1.80;99.90;;;;;;485531;245;27628;-74
2023/03/28 08:24:00;;;;;;;8.27;2.53;;;1.90;99.90;;;;;;485423;245;27929;-74
2023/03/28 08:26:04;;;;;;;5.50;3.28;;;1.90;99.90;;;;;;485506;245;28150;-74
2023/03/28 08:28:05;;;;;;;4.70;2.87;;;2.00;99.90;;;;;;485488;245;28070;-74
2023/03/28 08:30:06;;;;;;;7.93;3.35;;;2.10;99.90;;;;;;485488;245;28275;-74
2023/03/28 08:32:08;;;;;;;4.30;3.30;;;2.30;99.90;;;;;;485483;245;29380;-74
2023/03/28 08:34:09;;;;;;;5.68;3.47;;;2.30;99.90;;;;;;485521;245;27502;-74
2023/03/28 08:36:13;;;;;;;4.43;2.60;;;2.30;99.90;;;;;;485495;245;27603;-74
2023/03/28 08:38:12;;;;;;;4.12;2.55;;;2.40;99.90;;;;;;485399;245;27499;-74
2023/03/28 08:40:15;;;;;;;6.82;2.70;;;2.50;99.90;;;;;;485550;245;27453;-74
2023/03/28 08:42:14;;;;;;;4.28;2.65;;;2.60;99.90;;;;;;485454;245;27507;-74
2023/03/28 08:44:15;;;;;;;6.28;2.97;;;2.60;99.90;;;;;;485516;245;27500;-74
2023/03/28 08:46:16;;;;;;;3.45;2.20;;;2.60;99.90;;;;;;485479;245;27462;-74
2023/03/28 08:48:18;;;;;;;4.25;2.53;;;2.60;99.90;;;;;;485519;245;27491;-74
2023/03/28 08:50:19;;;;;;;9.60;2.55;;;2.70;99.90;;;;;;485524;245;27527;-74
2023/03/28 08:52:20;;;;;;;3.65;1.80;;;2.80;99.90;;;;;;485509;241;27517;-75
2023/03/28 08:54:21;;;;;;;4.28;2.17;;;2.90;99.90;;;;;;485474;245;28034;-75
2023/03/28 08:56:23;;;;;;;1.70;1.60;;;3.00;99.90;;;;;;485536;245;27936;-74
2023/03/28 08:58:25;;;;;;;5.45;2.50;;;3.10;99.90;;;;;;485526;245;28109;-74
2023/03/28 09:00:26;;;;;;;5.72;3.58;;;3.10;99.90;;;;;;485509;245;28014;-74
2023/03/28 09:02:26;;;;;;;3.95;2.20;;;3.20;99.90;;;;;;485504;245;27507;-74
2023/03/28 09:04:28;;;;;;;5.18;2.45;;;3.20;99.90;;;;;;485480;245;27522;-74
2023/03/28 09:06:29;;;;;;;1.70;1.60;;;3.30;99.90;;;;;;485502;245;27503;-74
2023/03/28 09:08:30;;;;;;;2.45;1.60;;;3.50;99.90;;;;;;485509;245;27498;-75
2023/03/28 09:10:31;;;;;;;3.70;1.70;;;3.60;99.90;;;;;;485482;245;27466;-75
2023/03/28 09:12:33;;;;;;;5.35;2.20;;;3.70;99.90;;;;;;485491;245;27463;-74
2023/03/28 09:14:34;;;;;;;2.75;1.77;;;3.70;99.90;;;;;;485424;245;27585;-75
2023/03/28 09:16:35;;;;;;;1.98;1.50;;;3.80;99.90;;;;;;485514;245;27476;-75
2023/03/28 09:18:36;;;;;;;3.75;1.83;;;3.70;99.90;;;;;;485506;245;27515;-74
2023/03/28 09:20:38;;;;;;;3.25;1.83;;;3.80;99.90;;;;;;485514;245;28245;-75
2023/03/28 09:22:39;;;;;;;2.30;1.45;;;3.90;99.90;;;;;;485529;245;28027;-75
2023/03/28 09:24:40;;;;;;;1.80;1.70;;;4.00;99.90;;;;;;485523;245;28080;-75
2023/03/28 09:26:41;;;;;;;2.62;1.67;;;4.20;99.90;;;;;;485557;245;27926;-74
2023/03/28 09:28:43;;;;;;;3.40;1.50;;;4.10;99.90;;;;;;482121;245;38819;-75
2023/03/28 09:30:44;;;;;;;2.97;1.73;;;4.10;99.90;;;;;;485391;245;28944;-75
2023/03/28 09:32:45;;;;;;;3.75;2.30;;;4.20;99.90;;;;;;485526;245;27475;-75
2023/03/28 09:34:46;;;;;;;6.20;2.37;;;4.20;99.90;;;;;;485497;245;27625;-75
2023/03/28 09:36:48;;;;;;;3.10;1.83;;;4.20;99.90;;;;;;485529;245;27522;-75
2023/03/28 09:38:49;;;;;;;2.20;1.83;;;4.20;99.90;;;;;;485534;245;27641;-74
2023/03/28 09:40:50;;;;;;;1.90;1.75;;;4.30;99.90;;;;;;485557;242;27860;-75
2023/03/28 09:42:51;;;;;;;2.15;2.05;;;4.40;99.90;;;;;;485530;245;27483;-76
2023/03/28 09:44:53;;;;;;;3.00;1.75;;;4.30;99.90;;;;;;485489;245;28102;-74
2023/03/28 09:46:54;;;;;;;2.20;1.70;;;4.40;99.90;;;;;;485545;245;27913;-74
2023/03/28 09:48:55;;;;;;;3.30;1.95;;;4.40;99.90;;;;;;485498;245;28081;-75
2023/03/28 09:50:56;;;;;;;2.65;1.90;;;4.40;99.90;;;;;;485553;245;27514;-75
2023/03/28 09:52:58;;;;;;;2.12;1.95;;;4.60;99.90;;;;;;485556;245;27481;-75
2023/03/28 09:54:59;;;;;;;2.80;2.17;;;4.70;99.90;;;;;;485394;245;27609;-75
2023/03/28 09:57:00;;;;;;;1.73;1.62;;;4.80;99.90;;;;;;485532;241;27476;-75
2023/03/28 09:59:02;;;;;;;3.85;1.85;;;4.80;99.90;;;;;;485556;245;27509;-75
2023/03/28 10:01:04;;;;;;;1.70;1.60;;;4.80;99.90;;;;;;485548;245;27855;-75
2023/03/28 10:03:04;;;;;;;2.40;1.85;;;4.70;99.90;;;;;;485582;245;27571;-75
2023/03/28 10:05:07;;;;;;;2.55;1.80;;;4.70;99.90;;;;;;485434;245;27602;-74
2023/03/28 10:07:06;;;;;;;3.37;2.03;;;5.00;99.90;;;;;;485466;245;27916;-74
2023/03/28 10:09:08;;;;;;;5.07;1.80;;;5.00;99.90;;;;;;485427;245;28106;-76
2023/03/28 10:11:09;;;;;;;2.78;2.08;;;5.20;99.90;;;;;;485555;245;27513;-75
2023/03/28 10:13:10;;;;;;;2.42;2.05;;;5.40;99.90;;;;;;485543;245;27491;-75
2023/03/28 10:15:11;;;;;;;2.05;1.75;;;5.50;99.90;;;;;;485556;245;27511;-75
2023/03/28 10:17:13;;;;;;;5.15;2.33;;;5.50;99.90;;;;;;485544;245;27475;-75
2023/03/28 10:19:14;;;;;;;3.83;1.80;;;5.40;99.90;;;;;;485526;245;27514;-75
2023/03/28 10:21:15;;;;;;;2.72;1.90;;;5.50;99.90;;;;;;485533;245;27622;-75
2023/03/28 10:23:16;;;;;;;3.95;2.10;;;5.50;99.90;;;;;;485558;245;28022;-75
2023/03/28 10:25:19;;;;;;;3.08;2.00;;;5.50;99.90;;;;;;485484;245;28088;-76
2023/03/28 10:27:22;;;;;;;4.00;2.25;;;5.60;99.90;;;;;;485497;245;27515;-75
2023/03/28 10:29:20;;;;;;;5.70;2.08;;;5.70;99.90;;;;;;485369;245;27489;-75
2023/03/28 10:31:22;;;;;;;2.58;1.62;;;5.90;99.90;;;;;;485585;245;27582;-75
2023/03/28 10:33:23;;;;;;;2.78;1.83;;;6.10;99.90;;;;;;485553;245;27551;-75